SHMÚ vydal meteorologické výstrahy na Prízemný mráz Zobraziť výstrahy

METAR

Letisková meteorologická správa METAR

Meteorologické informácie z ďalších profesionálnych meteorologických staníc SHMÚ zobrazené v tvare zodpovedajúcom pravidlám kódovania správ METAR sú uvedené v položke „METSYN

Informácie o správe METAR

21.04.2019 - 18:30 UTC

METAR LZIB 211830Z 35004KT CAVOK 15/02 Q1018=
METAR LZKZ 211830Z 05002KT CAVOK 15/02 Q1018=
METAR LZPP 211830Z 36005KT CAVOK 14/01 Q1018=
METAR LZSL 211830Z 34007KT CAVOK 14/01 Q1017=
METAR LZTT 211830Z VRB02KT 9999 FEW060 10/01 Q1018=
METAR LZZI 211830Z VRB02KT CAVOK 12/01 Q1018=

21.04.2019 - 18:00 UTC

METAR LZIB 211800Z 34006KT CAVOK 17/02 Q1018 NOSIG=
METAR LZKZ 211800Z 05004KT CAVOK 15/02 Q1018=
METAR LZPP 211800Z 34007KT CAVOK 15/01 Q1018=
METAR LZSL 211800Z 34005KT CAVOK 15/01 Q1017=
METAR LZTT 211800Z 08008KT 9999 FEW060 11/01 Q1018=
METAR LZZI 211800Z 08003KT 030V120 CAVOK 15/00 Q1018=

21.04.2019 - 18:00 UTC

METAR LZMC 211800Z 36004KT CAVOK 16/M03 Q1019=
METAR LZPW 211800Z 05008KT CAVOK 14/00 Q1018=

skok na menu ↑


skok na začiatok stránky ↑